Impacts METAR Board
IDs:

KBWI - Baltimore-Washington, MD, US

Updated at: 2200 UTC 14 Aug 2018
Potential Impact None Slight Moderate High
Time 14/10Z 14/11Z 14/12Z 14/13Z 14/14Z 14/15Z 14/16Z 14/17Z 14/18Z 14/19Z 14/20Z 14/21Z 14/22Z
Temp67 67 69 73 75 78 78 81 81 83 83 84 76
Dewpt65 65 66 67 67 67 66 66 65 66 64 65 69
Altim29.91 29.93 29.93 29.93 29.94 29.94 29.93 29.92 29.91 29.90 29.88 29.88 29.90
VIS10 10 10 10 10 10 10 10 10 10 10 10 10
CIG-- -- 250 -- -- 160 -- 250 250 250 250 250 110
CoverSCTSCTBKNSCTSCTBKNSCTBKNBKNBKNBKNBKNBKN
FltCatVFRVFRVFRVFRVFRVFRVFRVFRVFRVFRVFRVFRVFR
WX--------------------------
WDir220250280250280280280280290280270260250
WSpd3 4 6 8 10 12 10 11 11 9 10 11 6
WGst-- -- -- -- -- -- -- -- -- -- -- 18 --
Raw hourly METARs
KBWI 140954Z 22003KT 10SM FEW130 SCT220 19/18 A2991 RMK AO2 SLP128 T01940183 $
KBWI 141054Z 25004KT 10SM FEW060 FEW130 SCT220 19/18 A2993 RMK AO2 SLP134 T01940183 $
KBWI 141154Z 28006KT 10SM FEW060 SCT130 BKN250 21/19 A2993 RMK AO2 SLP132 70023 T02060189 10206 20189 50009
KBWI 141254Z 25008KT 10SM FEW060 SCT130 SCT250 23/19 A2993 RMK AO2 SLP135 T02280194
KBWI 141354Z 28010KT 10SM FEW034 FEW060 FEW130 SCT250 24/19 A2994 RMK AO2 SLP136 T02390194
KBWI 141454Z 28012KT 10SM SCT032 SCT060 SCT120 BKN160 BKN250 26/19 A2994 RMK AO2 SLP138 T02560194 51005
KBWI 141554Z 28010KT 10SM SCT028 SCT060 SCT120 SCT160 26/19 A2993 RMK AO2 SLP134 T02560189
KBWI 141654Z 28011KT 10SM SCT035 SCT120 SCT160 BKN250 27/19 A2992 RMK AO2 SLP131 T02720189
KBWI 141754Z 29011KT 10SM SCT038 SCT120 SCT160 BKN250 27/18 A2991 RMK AO2 SLP127 T02720183 10278 20206 58010
KBWI 141854Z 28009KT 10SM SCT044 SCT065 SCT160 BKN250 28/19 A2990 RMK AO2 SLP123 T02830189
KBWI 141954Z 27010KT 10SM SCT047 SCT160 BKN250 28/18 A2988 RMK AO2 SLP116 TCU DSNT SW-W T02830178
KBWI 142054Z 26011G18KT 10SM SCT049 SCT085 SCT160 BKN250 29/18 A2988 RMK AO2 SLP115 TCU DSNT SW AND DSNT NW-N T02890183 56012
KBWI 142154Z 25006KT 10SM SCT047TCU SCT060 BKN110 BKN160 BKN250 24/21 A2990 RMK AO2 RAB38E49 SLP123 TCU NE-SE P0002 T02440206



Page loaded:  22:03 UTC  |   03:03 PM Pacific  |   04:03 PM Mountain  |   05:03 PM Central  |   06:03 PM Eastern

 

ADVISORIES

FORECASTS

FORECASTS

OBSERVATIONS

USER TOOLS

ABOUT US